Time;durP1;ratioP1;P1;durP2;ratioP2;P2;SDS_P1;SDS_P2;PMS_P1;PMS_P2;Temp;Humidity;BMP_temperature;BMP_pressure;BME280_temperature;BME280_humidity;BME280_pressure;Samples;Min_cycle;Max_cycle;Signal;HPM_P1;HPM_P2
2023/04/20 00:01:08;;;;;;;1999.90;999.90;;;17.50;99.90;;;;;;5039314;28;20037;-68
2023/04/20 00:03:36;;;;;;;1999.90;999.90;;;17.50;99.90;;;;;;5044255;28;20075;-67
2023/04/20 00:06:04;;;;;;;1999.90;999.90;;;17.50;99.90;;;;;;5037414;28;20470;-68
2023/04/20 00:08:32;;;;;;;1999.90;999.90;;;17.60;99.90;;;;;;5042682;28;20112;-69
2023/04/20 00:10:59;;;;;;;1999.90;999.90;;;17.60;99.90;;;;;;5044454;28;20075;-68
2023/04/20 00:13:26;;;;;;;1999.90;999.90;;;17.60;99.90;;;;;;5036345;28;20040;-69
2023/04/20 00:15:54;;;;;;;1999.90;999.90;;;17.70;99.90;;;;;;5030625;28;20059;-69
2023/04/20 00:18:22;;;;;;;1999.90;999.90;;;17.70;99.90;;;;;;5038617;28;20036;-69
2023/04/20 00:20:49;;;;;;;1999.90;999.90;;;17.80;99.90;;;;;;5046262;28;20039;-68
2023/04/20 00:23:16;;;;;;;1999.90;999.90;;;17.80;99.90;;;;;;5042636;28;21238;-69
2023/04/20 00:25:44;;;;;;;1999.90;999.90;;;17.80;99.90;;;;;;5048718;28;20040;-69
2023/04/20 00:28:11;;;;;;;1999.90;999.90;;;17.80;99.90;;;;;;5044150;28;20095;-68
2023/04/20 00:30:38;;;;;;;1999.90;999.90;;;17.80;99.90;;;;;;5049381;28;20037;-68
2023/04/20 00:33:05;;;;;;;1999.90;999.90;;;17.80;99.90;;;;;;5038369;28;20569;-68
2023/04/20 00:35:33;;;;;;;1999.90;999.90;;;17.80;99.90;;;;;;5039413;28;20036;-68
2023/04/20 00:38:00;;;;;;;1999.90;999.90;;;17.90;99.90;;;;;;5042958;28;20029;-69
2023/04/20 00:40:27;;;;;;;1999.90;999.90;;;18.00;99.90;;;;;;5044763;28;20831;-68
2023/04/20 00:42:55;;;;;;;1999.90;999.90;;;18.00;99.90;;;;;;5041589;28;20025;-69
2023/04/20 00:45:22;;;;;;;1999.90;999.90;;;18.10;99.90;;;;;;5041301;28;20017;-68
2023/04/20 00:47:51;;;;;;;1999.90;999.90;;;18.20;99.90;;;;;;5038075;28;20033;-69
2023/04/20 00:50:18;;;;;;;1999.90;999.90;;;18.40;99.90;;;;;;5052046;28;20690;-68
2023/04/20 00:52:46;;;;;;;1999.90;999.90;;;18.60;99.90;;;;;;5039205;28;20045;-70
2023/04/20 00:55:13;;;;;;;1999.90;999.90;;;18.70;99.90;;;;;;5046097;28;20036;-69
2023/04/20 00:57:42;;;;;;;1999.90;999.90;;;18.90;99.90;;;;;;5033022;28;20503;-68
2023/04/20 01:00:10;;;;;;;1999.90;999.90;;;19.10;99.90;;;;;;5034837;28;20033;-68
2023/04/20 01:02:37;;;;;;;1999.90;999.90;;;19.20;99.90;;;;;;5025199;28;20032;-68
2023/04/20 01:05:05;;;;;;;1999.90;999.90;;;19.30;99.90;;;;;;5028963;28;20090;-69
2023/04/20 01:07:32;;;;;;;1999.90;999.90;;;19.40;99.90;;;;;;5030591;28;20128;-69
2023/04/20 01:09:59;;;;;;;1999.90;999.90;;;19.50;99.90;;;;;;5023580;28;20092;-69
2023/04/20 01:12:27;;;;;;;1999.90;999.90;;;19.60;99.90;;;;;;5027832;28;20021;-68
2023/04/20 01:14:54;;;;;;;1999.90;999.90;;;19.70;99.90;;;;;;5047476;28;20512;-68
2023/04/20 01:17:22;;;;;;;1999.90;999.90;;;19.90;99.90;;;;;;5031305;28;20040;-69
2023/04/20 01:19:51;;;;;;;1999.90;999.90;;;20.00;99.90;;;;;;5032613;28;20036;-69
2023/04/20 01:22:20;;;;;;;1999.90;999.90;;;19.90;99.90;;;;;;5037889;28;20908;-69
2023/04/20 01:24:47;;;;;;;1999.90;999.90;;;19.90;99.90;;;;;;5045779;28;20036;-69
2023/04/20 01:27:15;;;;;;;1999.90;999.90;;;19.70;99.90;;;;;;5042653;28;20025;-69
2023/04/20 01:29:44;;;;;;;1999.90;999.90;;;19.70;99.90;;;;;;5039231;28;20025;-69
2023/04/20 01:32:12;;;;;;;1999.90;999.90;;;19.60;99.90;;;;;;5046966;28;20021;-68
2023/04/20 01:34:40;;;;;;;1999.90;999.90;;;19.50;99.90;;;;;;5042875;28;20429;-68
2023/04/20 01:37:07;;;;;;;1999.90;999.90;;;19.50;99.90;;;;;;5047465;28;20051;-68
2023/04/20 01:39:38;;;;;;;1999.90;999.90;;;19.40;99.90;;;;;;5041599;28;20048;-68
2023/04/20 01:42:06;;;;;;;1999.90;999.90;;;19.40;99.90;;;;;;5044167;28;20049;-68
2023/04/20 01:44:34;;;;;;;1999.90;999.90;;;19.50;99.90;;;;;;5043116;28;20032;-68
2023/04/20 01:47:01;;;;;;;1999.90;999.90;;;19.50;99.90;;;;;;5043450;28;20071;-68
2023/04/20 01:49:28;;;;;;;1999.90;999.90;;;19.60;99.90;;;;;;5040669;28;20057;-69
2023/04/20 01:51:56;;;;;;;1999.90;999.90;;;19.60;99.90;;;;;;5047030;28;20029;-68
2023/04/20 01:54:24;;;;;;;1999.90;999.90;;;19.70;99.90;;;;;;5051571;28;20024;-68
2023/04/20 01:56:51;;;;;;;1999.90;999.90;;;19.70;99.90;;;;;;5052284;28;20060;-68
2023/04/20 01:59:19;;;;;;;1999.90;999.90;;;19.70;99.90;;;;;;5048263;28;20029;-68
2023/04/20 02:01:49;;;;;;;1999.90;999.90;;;19.60;99.90;;;;;;5056936;28;20032;-70
2023/04/20 02:04:17;;;;;;;1999.90;999.90;;;19.60;99.90;;;;;;5040775;28;20037;-69
2023/04/20 02:06:44;;;;;;;1999.90;999.90;;;19.60;99.90;;;;;;5035608;28;20433;-68
2023/04/20 02:09:11;;;;;;;1999.90;999.90;;;19.60;99.90;;;;;;5036957;28;20395;-69
2023/04/20 02:11:39;;;;;;;1999.90;999.90;;;19.60;99.90;;;;;;5035019;28;20032;-70
2023/04/20 02:14:07;;;;;;;1999.90;999.90;;;19.70;99.90;;;;;;5045769;28;20036;-69
2023/04/20 02:16:35;;;;;;;1999.90;999.90;;;19.80;99.90;;;;;;5051731;28;20051;-68
2023/04/20 02:19:02;;;;;;;1999.90;999.90;;;19.90;99.90;;;;;;5047693;28;20505;-70
2023/04/20 02:21:30;;;;;;;1999.90;999.90;;;20.00;99.90;;;;;;5044097;28;20079;-70
2023/04/20 02:23:57;;;;;;;1999.90;999.90;;;20.20;99.90;;;;;;5032694;28;20521;-69
2023/04/20 02:26:25;;;;;;;1999.90;999.90;;;20.20;99.90;;;;;;5041478;28;20036;-69
2023/04/20 02:28:53;;;;;;;1999.90;999.90;;;20.20;99.90;;;;;;5045930;28;20123;-69
2023/04/20 02:31:20;;;;;;;1999.90;999.90;;;20.30;99.90;;;;;;5051283;28;20474;-69
2023/04/20 02:33:48;;;;;;;1999.90;999.90;;;20.20;99.90;;;;;;5049569;28;20033;-70
2023/04/20 02:36:16;;;;;;;1999.90;999.90;;;20.20;99.90;;;;;;5048794;28;20098;-68
2023/04/20 02:38:43;;;;;;;1999.90;999.90;;;20.10;99.90;;;;;;5047816;28;20508;-69
2023/04/20 02:41:10;;;;;;;1999.90;999.90;;;20.00;99.90;;;;;;5047089;28;20048;-70
2023/04/20 02:43:38;;;;;;;1999.90;999.90;;;19.90;99.90;;;;;;5045218;28;20112;-69
2023/04/20 02:46:06;;;;;;;1999.90;999.90;;;19.80;99.90;;;;;;5041577;28;20040;-70
2023/04/20 02:48:33;;;;;;;1999.90;999.90;;;19.60;99.90;;;;;;5042818;28;20039;-69
2023/04/20 02:51:01;;;;;;;1999.90;999.90;;;19.50;99.90;;;;;;5039827;28;20494;-70
2023/04/20 02:53:28;;;;;;;1999.90;999.90;;;19.40;99.90;;;;;;5044754;28;21011;-69
2023/04/20 02:55:55;;;;;;;1999.90;999.90;;;19.40;99.90;;;;;;5044647;28;20044;-70
2023/04/20 02:58:23;;;;;;;1999.90;999.90;;;19.30;99.90;;;;;;5045605;28;20017;-69
2023/04/20 03:00:50;;;;;;;1999.90;999.90;;;19.30;99.90;;;;;;5041582;28;20098;-70
2023/04/20 03:03:20;;;;;;;1999.90;999.90;;;19.30;99.90;;;;;;5043320;28;20033;-69
2023/04/20 03:05:48;;;;;;;1999.90;999.90;;;19.30;99.90;;;;;;5054179;28;20029;-69
2023/04/20 03:08:15;;;;;;;1999.90;999.90;;;19.30;99.90;;;;;;5040636;28;20157;-70
2023/04/20 03:10:43;;;;;;;1999.90;999.90;;;19.30;99.90;;;;;;5045777;28;20036;-68
2023/04/20 03:13:10;;;;;;;1999.90;999.90;;;19.20;99.90;;;;;;5038083;28;20056;-70
2023/04/20 03:15:37;;;;;;;1999.90;999.90;;;19.00;99.90;;;;;;5054931;28;20048;-70
2023/04/20 03:18:05;;;;;;;1999.90;999.90;;;19.00;99.90;;;;;;5037943;28;20599;-70
2023/04/20 03:20:32;;;;;;;1999.90;999.90;;;19.00;99.90;;;;;;5053231;28;20027;-70
2023/04/20 03:23:00;;;;;;;1999.90;999.90;;;18.90;99.90;;;;;;5043975;28;20059;-70
2023/04/20 03:25:28;;;;;;;1999.90;999.90;;;18.90;99.90;;;;;;5051160;28;20099;-70
2023/04/20 03:27:55;;;;;;;1999.90;999.90;;;18.90;99.90;;;;;;5045263;28;20029;-70
2023/04/20 03:30:23;;;;;;;1999.90;999.90;;;18.90;99.90;;;;;;5039357;28;20483;-69
2023/04/20 03:32:50;;;;;;;1999.90;999.90;;;18.90;99.90;;;;;;5034734;28;20111;-69
2023/04/20 03:35:19;;;;;;;1999.90;999.90;;;19.00;99.90;;;;;;5040999;28;20494;-70
2023/04/20 03:37:47;;;;;;;1999.90;999.90;;;18.90;99.90;;;;;;5044556;28;20059;-72
2023/04/20 03:40:14;;;;;;;1999.90;999.90;;;18.90;99.90;;;;;;5046242;28;20030;-69
2023/04/20 03:42:42;;;;;;;1999.90;999.90;;;18.90;99.90;;;;;;5043686;28;20035;-70
2023/04/20 03:45:10;;;;;;;1999.90;999.90;;;19.10;99.90;;;;;;5034417;28;20029;-70
2023/04/20 03:47:37;;;;;;;1999.90;999.90;;;19.20;99.90;;;;;;5039745;28;20029;-70
2023/04/20 03:50:05;;;;;;;1999.90;999.90;;;19.20;99.90;;;;;;5041643;28;21640;-69
2023/04/20 03:52:34;;;;;;;1999.90;999.90;;;19.20;99.90;;;;;;5042829;28;20476;-71
2023/04/20 03:55:01;;;;;;;1999.90;999.90;;;19.20;99.90;;;;;;5057846;28;20047;-70
2023/04/20 03:57:29;;;;;;;1999.90;999.90;;;19.20;99.90;;;;;;5044788;28;20128;-70
2023/04/20 03:59:56;;;;;;;1999.90;999.90;;;19.20;99.90;;;;;;5043611;28;20547;-69
2023/04/20 04:02:23;;;;;;;1999.90;999.90;;;19.20;99.90;;;;;;5040276;28;21894;-69
2023/04/20 04:04:50;;;;;;;1999.90;999.90;;;19.20;99.90;;;;;;5035426;28;20094;-70
2023/04/20 04:07:18;;;;;;;1999.90;999.90;;;19.30;99.90;;;;;;5043826;28;20111;-70
2023/04/20 04:09:45;;;;;;;1999.90;999.90;;;19.40;99.90;;;;;;5042060;28;20044;-69
2023/04/20 04:12:12;;;;;;;1999.90;999.90;;;19.40;99.90;;;;;;5029478;28;20112;-70
2023/04/20 04:14:40;;;;;;;1999.90;999.90;;;19.50;99.90;;;;;;5029519;28;20031;-70
2023/04/20 04:17:07;;;;;;;1999.90;999.90;;;19.60;99.90;;;;;;5053248;28;20097;-71
2023/04/20 04:19:34;;;;;;;1999.90;999.90;;;19.60;99.90;;;;;;5039617;28;20040;-70
2023/04/20 04:22:02;;;;;;;1999.90;999.90;;;19.70;99.90;;;;;;5030727;28;20036;-70
2023/04/20 04:24:30;;;;;;;1999.90;999.90;;;19.70;99.90;;;;;;5026173;28;20017;-69
2023/04/20 04:26:57;;;;;;;1999.90;999.90;;;19.70;99.90;;;;;;5031840;28;20082;-69
2023/04/20 04:29:25;;;;;;;1999.90;999.90;;;19.70;99.90;;;;;;5032492;28;20021;-69
2023/04/20 04:31:53;;;;;;;1999.90;999.90;;;19.80;99.90;;;;;;5035894;28;20051;-69
2023/04/20 04:34:22;;;;;;;1999.90;999.90;;;19.80;99.90;;;;;;5043300;28;20074;-69
2023/04/20 04:36:50;;;;;;;1999.90;999.90;;;19.90;99.90;;;;;;5033941;28;20045;-70
2023/04/20 04:39:18;;;;;;;1999.90;999.90;;;19.90;99.90;;;;;;5040484;28;20034;-70
2023/04/20 04:41:46;;;;;;;1999.90;999.90;;;19.90;99.90;;;;;;5049121;28;20464;-70
2023/04/20 04:44:15;;;;;;;1999.90;999.90;;;20.00;99.90;;;;;;5042530;28;20041;-70
2023/04/20 04:46:46;;;;;;;1999.90;999.90;;;20.00;99.90;;;;;;5035623;28;20029;-69
2023/04/20 04:49:13;;;;;;;1999.90;999.90;;;20.10;99.90;;;;;;5046630;28;20466;-69
2023/04/20 04:51:41;;;;;;;1999.90;999.90;;;20.20;99.90;;;;;;5045716;28;20060;-69
2023/04/20 04:54:08;;;;;;;1999.90;999.90;;;20.20;99.90;;;;;;5048963;28;20036;-68
2023/04/20 04:56:35;;;;;;;1999.90;999.90;;;20.20;99.90;;;;;;5057813;28;20453;-68
2023/04/20 04:59:03;;;;;;;1999.90;999.90;;;20.30;99.90;;;;;;5049068;28;20025;-69
2023/04/20 05:01:30;;;;;;;1999.90;999.90;;;20.20;99.90;;;;;;5056894;28;20093;-69
2023/04/20 05:03:57;;;;;;;1999.90;999.90;;;20.20;99.90;;;;;;5042185;28;20484;-68
2023/04/20 05:06:25;;;;;;;1999.90;999.90;;;20.20;99.90;;;;;;5050540;28;20064;-68
2023/04/20 05:08:52;;;;;;;1999.90;999.90;;;20.20;99.90;;;;;;5047592;28;20048;-69
2023/04/20 05:11:19;;;;;;;1999.90;999.90;;;20.20;99.90;;;;;;5039189;28;20470;-69
2023/04/20 05:13:47;;;;;;;1999.90;999.90;;;20.20;99.90;;;;;;5045346;28;20056;-68
2023/04/20 05:16:15;;;;;;;1999.90;999.90;;;20.30;99.90;;;;;;5052988;28;20191;-69
2023/04/20 05:18:42;;;;;;;1999.90;999.90;;;20.30;99.90;;;;;;5056012;28;20029;-67
2023/04/20 05:21:10;;;;;;;1999.90;999.90;;;20.50;99.90;;;;;;5055767;28;20040;-69
2023/04/20 05:23:37;;;;;;;1999.90;999.90;;;20.60;99.90;;;;;;5044733;28;20028;-70
2023/04/20 05:26:05;;;;;;;1999.90;999.90;;;20.70;99.90;;;;;;5040017;28;20446;-69
2023/04/20 05:28:34;;;;;;;1999.90;999.90;;;20.70;99.90;;;;;;5045461;28;20078;-67
2023/04/20 05:31:01;;;;;;;1999.90;999.90;;;20.80;99.90;;;;;;5038536;28;20147;-68
2023/04/20 05:33:29;;;;;;;1999.90;999.90;;;20.70;99.90;;;;;;5037124;28;20460;-68
2023/04/20 05:35:57;;;;;;;1999.90;999.90;;;20.60;99.90;;;;;;5052759;28;20156;-68
2023/04/20 05:38:24;;;;;;;1999.90;999.90;;;20.40;99.90;;;;;;5054127;28;20021;-68
2023/04/20 05:40:52;;;;;;;1999.90;999.90;;;20.30;99.90;;;;;;5058349;28;20403;-69
2023/04/20 05:43:19;;;;;;;1999.90;999.90;;;20.10;99.90;;;;;;5048231;28;20029;-68
2023/04/20 05:45:47;;;;;;;1999.90;999.90;;;20.00;99.90;;;;;;5059718;28;20103;-68
2023/04/20 05:48:15;;;;;;;1999.90;999.90;;;19.90;99.90;;;;;;5046207;28;20021;-69
2023/04/20 05:50:42;;;;;;;1999.90;999.90;;;19.90;99.90;;;;;;5051876;28;20102;-69
2023/04/20 05:53:09;;;;;;;1999.90;999.90;;;19.80;99.90;;;;;;5047596;28;20013;-69
2023/04/20 05:55:37;;;;;;;1999.90;999.90;;;19.70;99.90;;;;;;5052230;28;20028;-69
2023/04/20 05:58:04;;;;;;;1999.90;999.90;;;19.60;99.90;;;;;;5046541;28;20411;-69
2023/04/20 06:00:32;;;;;;;1999.90;999.90;;;19.50;99.90;;;;;;5046993;28;20496;-69
2023/04/20 06:03:00;;;;;;;1999.90;999.90;;;19.50;99.90;;;;;;5050207;28;20539;-69
2023/04/20 06:05:27;;;;;;;1999.90;999.90;;;19.40;99.90;;;;;;5040362;28;20029;-69
2023/04/20 06:07:54;;;;;;;1999.90;999.90;;;19.30;99.90;;;;;;5041319;28;20040;-69
2023/04/20 06:10:22;;;;;;;1999.90;999.90;;;19.40;99.90;;;;;;5045756;28;20043;-70
2023/04/20 06:12:49;;;;;;;1999.90;999.90;;;19.30;99.90;;;;;;5038342;28;20024;-69
2023/04/20 06:15:17;;;;;;;1999.90;999.90;;;19.30;99.90;;;;;;5050740;28;20215;-69
2023/04/20 06:17:44;;;;;;;1999.90;999.90;;;19.30;99.90;;;;;;5054238;28;20021;-69
2023/04/20 06:20:12;;;;;;;1999.90;999.90;;;19.30;99.90;;;;;;5049150;28;20021;-69
2023/04/20 06:22:46;;;;;;;1999.90;999.90;;;19.30;99.90;;;;;;5041677;28;20029;-70
2023/04/20 06:25:14;;;;;;;1999.90;999.90;;;19.30;99.90;;;;;;5050275;28;20404;-69
2023/04/20 06:27:42;;;;;;;1999.90;999.90;;;19.30;99.90;;;;;;5039171;28;20034;-69
2023/04/20 06:30:10;;;;;;;1999.90;999.90;;;19.30;99.90;;;;;;5041408;28;20051;-69
2023/04/20 06:32:37;;;;;;;1999.90;999.90;;;19.20;99.90;;;;;;5045623;28;20452;-68
2023/04/20 06:35:23;;;;;;;1999.90;999.90;;;19.20;99.90;;;;;;5044108;28;20450;-69
2023/04/20 06:37:51;;;;;;;1999.90;999.90;;;19.20;99.90;;;;;;5046504;28;20442;-69
2023/04/20 06:40:18;;;;;;;1999.90;999.90;;;19.10;99.90;;;;;;5047973;28;20394;-70
2023/04/20 06:42:46;;;;;;;1999.90;999.90;;;19.10;99.90;;;;;;5050159;28;20041;-69
2023/04/20 06:45:13;;;;;;;1999.90;999.90;;;19.10;99.90;;;;;;5045716;28;20021;-69
2023/04/20 06:47:40;;;;;;;1999.90;999.90;;;19.10;99.90;;;;;;5050950;28;20052;-69
2023/04/20 06:50:08;;;;;;;1999.90;999.90;;;19.10;99.90;;;;;;5047221;28;20031;-69
2023/04/20 06:52:40;;;;;;;1999.90;999.90;;;19.20;99.90;;;;;;5038565;28;20060;-71
2023/04/20 06:55:08;;;;;;;1999.90;999.90;;;19.20;99.90;;;;;;5046558;28;20049;-69
2023/04/20 06:57:39;;;;;;;1999.90;999.90;;;19.20;99.90;;;;;;5044737;28;20029;-69
2023/04/20 07:00:10;;;;;;;1999.90;999.90;;;19.10;99.90;;;;;;5045490;28;20029;-69
2023/04/20 07:02:49;;;;;;;1999.90;999.90;;;19.10;99.90;;;;;;5044744;28;20118;-70
2023/04/20 07:05:17;;;;;;;1999.90;999.90;;;19.10;99.90;;;;;;5045272;28;20511;-69
2023/04/20 07:07:45;;;;;;;1999.90;999.90;;;19.00;99.90;;;;;;5050088;28;20330;-68
2023/04/20 07:10:14;;;;;;;1999.90;999.90;;;19.00;99.90;;;;;;5045409;28;20056;-71
2023/04/20 07:12:42;;;;;;;1999.90;999.90;;;19.00;99.90;;;;;;5041809;28;20017;-70
2023/04/20 07:15:09;;;;;;;1999.90;999.90;;;18.90;99.90;;;;;;5053074;28;20044;-72
2023/04/20 07:18:02;;;;;;;1999.90;999.90;;;18.90;99.90;;;;;;5054331;28;20170;-69
2023/04/20 07:20:30;;;;;;;1999.90;999.90;;;18.90;99.90;;;;;;5044537;28;20104;-71
2023/04/20 07:22:57;;;;;;;1999.90;999.90;;;18.80;99.90;;;;;;5048589;28;20159;-70
2023/04/20 07:25:24;;;;;;;1999.90;999.90;;;18.90;99.90;;;;;;5034564;28;20276;-69
2023/04/20 07:27:52;;;;;;;1999.90;999.90;;;18.90;99.90;;;;;;5034282;28;21941;-70
2023/04/20 07:30:19;;;;;;;1999.90;999.90;;;18.80;99.90;;;;;;5036555;28;20040;-70
2023/04/20 07:32:46;;;;;;;1999.90;999.90;;;18.80;99.90;;;;;;5048408;28;20024;-69
2023/04/20 07:35:14;;;;;;;1999.90;999.90;;;18.80;99.90;;;;;;5044977;28;20041;-69
2023/04/20 07:37:41;;;;;;;1999.90;999.90;;;18.80;99.90;;;;;;5047029;28;20029;-69
2023/04/20 07:40:09;;;;;;;1999.90;999.90;;;18.70;99.90;;;;;;5044204;28;20029;-69
2023/04/20 07:42:37;;;;;;;1999.90;999.90;;;18.70;99.90;;;;;;5030004;28;20087;-68
2023/04/20 07:45:08;;;;;;;1999.90;999.90;;;18.70;99.90;;;;;;5044350;28;20526;-68
2023/04/20 07:47:36;;;;;;;1999.90;999.90;;;18.70;99.90;;;;;;5045843;28;20084;-69
2023/04/20 07:50:05;;;;;;;1999.90;999.90;;;18.70;99.90;;;;;;5039920;28;20044;-69
2023/04/20 07:52:33;;;;;;;1999.90;999.90;;;18.70;99.90;;;;;;5039040;28;20100;-69
2023/04/20 07:55:00;;;;;;;1999.90;999.90;;;18.60;99.90;;;;;;5046180;28;20047;-70
2023/04/20 07:57:28;;;;;;;1999.90;999.90;;;18.60;99.90;;;;;;5060074;28;20058;-69
2023/04/20 07:59:56;;;;;;;1999.90;999.90;;;18.60;99.90;;;;;;5045402;28;20432;-69
2023/04/20 08:02:23;;;;;;;1999.90;999.90;;;18.50;99.90;;;;;;5044043;28;20409;-69
2023/04/20 08:04:51;;;;;;;1999.90;999.90;;;18.50;99.90;;;;;;5054479;28;20495;-70
2023/04/20 08:07:18;;;;;;;1999.90;999.90;;;18.60;99.90;;;;;;5046787;28;20214;-69
2023/04/20 08:09:45;;;;;;;1999.90;999.90;;;18.50;99.90;;;;;;5049253;28;20554;-68
2023/04/20 08:12:13;;;;;;;1999.90;999.90;;;18.40;99.90;;;;;;5050107;28;20052;-70
2023/04/20 08:14:40;;;;;;;1999.90;999.90;;;18.40;99.90;;;;;;5053139;28;20522;-68
2023/04/20 08:17:08;;;;;;;1999.90;999.90;;;18.30;99.90;;;;;;5054960;28;20051;-68
2023/04/20 08:19:35;;;;;;;1999.90;999.90;;;18.30;99.90;;;;;;5047800;28;20075;-68
2023/04/20 08:22:04;;;;;;;1999.90;999.90;;;18.20;99.90;;;;;;5052446;28;20087;-69
2023/04/20 08:24:32;;;;;;;1999.90;999.90;;;18.20;99.90;;;;;;5046752;28;20112;-71
2023/04/20 08:27:00;;;;;;;1999.90;999.90;;;18.10;99.90;;;;;;5040205;28;22285;-70
2023/04/20 08:29:27;;;;;;;1999.90;999.90;;;18.10;99.90;;;;;;5051801;28;20028;-69
2023/04/20 08:31:55;;;;;;;1999.90;999.90;;;18.10;99.90;;;;;;5053907;28;20025;-70
2023/04/20 08:34:22;;;;;;;1999.90;999.90;;;18.10;99.90;;;;;;5043370;28;20119;-70
2023/04/20 08:36:50;;;;;;;1999.90;999.90;;;18.00;99.90;;;;;;5054084;28;20037;-69
2023/04/20 08:39:22;;;;;;;1999.90;999.90;;;18.00;99.90;;;;;;5046107;28;20037;-69
2023/04/20 08:41:54;;;;;;;1999.90;999.90;;;18.00;99.90;;;;;;5056955;28;20029;-69
2023/04/20 08:44:22;;;;;;;1999.90;999.90;;;17.90;99.90;;;;;;5048752;28;20035;-69
2023/04/20 08:46:50;;;;;;;1999.90;999.90;;;17.90;99.90;;;;;;5055460;28;20043;-69
2023/04/20 08:49:19;;;;;;;1999.90;999.90;;;17.90;99.90;;;;;;5051218;28;20035;-70
2023/04/20 08:51:47;;;;;;;1999.90;999.90;;;17.80;99.90;;;;;;5055948;28;20550;-69
2023/04/20 08:54:15;;;;;;;1999.90;999.90;;;17.80;99.90;;;;;;5051036;28;20094;-69
2023/04/20 08:56:47;;;;;;;1999.90;999.90;;;17.80;99.90;;;;;;5052160;28;20075;-70
2023/04/20 08:59:15;;;;;;;1999.90;999.90;;;17.80;99.90;;;;;;5045340;28;20025;-71
2023/04/20 09:01:44;;;;;;;1999.90;999.90;;;17.70;99.90;;;;;;5046656;28;20064;-70
2023/04/20 09:04:18;;;;;;;1999.90;999.90;;;17.70;99.90;;;;;;5055411;28;20058;-68
2023/04/20 09:06:49;;;;;;;1999.90;999.90;;;17.70;99.90;;;;;;5061129;28;20040;-70
2023/04/20 09:09:17;;;;;;;1999.90;999.90;;;17.70;99.90;;;;;;5046619;28;20048;-70
2023/04/20 09:11:46;;;;;;;1999.90;999.90;;;17.70;99.90;;;;;;5043349;28;20033;-71
2023/04/20 09:14:16;;;;;;;1999.90;999.90;;;17.60;99.90;;;;;;5051837;28;20494;-70
2023/04/20 09:16:52;;;;;;;1999.90;999.90;;;17.60;99.90;;;;;;5048585;28;20037;-70
2023/04/20 09:19:27;;;;;;;1999.90;999.90;;;17.60;99.90;;;;;;5047266;28;20029;-70
2023/04/20 09:21:56;;;;;;;1999.90;999.90;;;17.50;99.90;;;;;;5055282;28;20402;-70
2023/04/20 09:24:31;;;;;;;1999.90;999.90;;;17.50;99.90;;;;;;5044339;28;20029;-70
2023/04/20 09:27:00;;;;;;;1999.90;999.90;;;17.50;99.90;;;;;;5036516;28;20084;-69
2023/04/20 09:29:29;;;;;;;1999.90;999.90;;;17.40;99.90;;;;;;5031667;28;20637;-70
2023/04/20 09:31:56;;;;;;;1999.90;999.90;;;17.40;99.90;;;;;;5035702;28;20472;-69
2023/04/20 09:34:24;;;;;;;1999.90;999.90;;;17.30;99.90;;;;;;5035879;28;20367;-70
2023/04/20 09:36:56;;;;;;;1999.90;999.90;;;17.30;99.90;;;;;;5049375;28;20091;-70
2023/04/20 09:39:25;;;;;;;1999.90;999.90;;;17.30;99.90;;;;;;5046872;28;20368;-69
2023/04/20 09:41:53;;;;;;;1999.90;999.90;;;17.30;99.90;;;;;;5051730;28;20037;-70
2023/04/20 09:44:20;;;;;;;1999.90;999.90;;;17.30;99.90;;;;;;5053868;28;20037;-69
2023/04/20 09:46:47;;;;;;;1999.90;999.90;;;17.20;99.90;;;;;;5053991;28;20032;-69
2023/04/20 09:49:15;;;;;;;1999.90;999.90;;;17.30;99.90;;;;;;5052170;28;20132;-71
2023/04/20 09:51:46;;;;;;;1999.90;999.90;;;17.20;99.90;;;;;;5049952;28;20087;-70
2023/04/20 09:54:14;;;;;;;1999.90;999.90;;;17.20;99.90;;;;;;5051115;28;20031;-70
2023/04/20 09:56:42;;;;;;;1999.90;999.90;;;17.20;99.90;;;;;;5054228;28;20040;-70
2023/04/20 09:59:09;;;;;;;1999.90;999.90;;;17.20;99.90;;;;;;5040504;28;20396;-69
2023/04/20 10:01:37;;;;;;;1999.90;999.90;;;17.20;99.90;;;;;;5053333;28;20043;-70
2023/04/20 10:04:12;;;;;;;1999.90;999.90;;;17.20;99.90;;;;;;5052495;28;20086;-69
2023/04/20 10:06:40;;;;;;;;;;;17.20;99.90;;;;;;5053339;28;20033;-70
2023/04/20 10:09:08;;;;;;;1999.90;999.90;;;17.20;99.90;;;;;;5048793;28;19951;-69
2023/04/20 10:11:39;;;;;;;1999.90;999.90;;;17.10;99.90;;;;;;5054602;28;20472;-70
2023/04/20 10:14:22;;;;;;;1999.90;999.90;;;17.10;99.90;;;;;;5052222;28;20040;-70
2023/04/20 10:17:28;;;;;;;1999.90;999.90;;;17.00;99.90;;;;;;5058629;28;20570;-71
2023/04/20 10:19:55;;;;;;;1999.90;999.90;;;17.00;99.90;;;;;;5049304;28;20106;-70
2023/04/20 10:22:33;;;;;;;1999.90;999.90;;;17.00;99.90;;;;;;5047646;28;20066;-70
2023/04/20 10:25:13;;;;;;;1999.90;999.90;;;17.00;99.90;;;;;;5051479;28;20074;-71
2023/04/20 10:27:51;;;;;;;1999.90;999.90;;;16.90;99.90;;;;;;5051998;28;20025;-70
2023/04/20 10:30:19;;;;;;;1999.90;999.90;;;16.90;99.90;;;;;;5058084;28;20021;-70
2023/04/20 10:32:47;;;;;;;1999.90;999.90;;;16.80;99.90;;;;;;5049871;28;20032;-70
2023/04/20 10:35:15;;;;;;;1999.90;999.90;;;16.80;99.90;;;;;;5048074;28;20087;-70
2023/04/20 10:37:50;;;;;;;1999.90;999.90;;;16.80;99.90;;;;;;5041224;28;20033;-70
2023/04/20 10:40:28;;;;;;;1999.90;999.90;;;16.70;99.90;;;;;;5046833;28;20052;-69
2023/04/20 10:42:55;;;;;;;1999.90;999.90;;;16.80;99.90;;;;;;5051444;28;20037;-69
2023/04/20 10:45:40;;;;;;;1999.90;999.90;;;16.70;99.90;;;;;;5050572;28;20096;-71
2023/04/20 10:48:11;;;;;;;1999.90;999.90;;;16.70;99.90;;;;;;5049530;28;20455;-70
2023/04/20 10:50:38;;;;;;;1999.90;999.90;;;16.70;99.90;;;;;;5042579;28;20060;-69
2023/04/20 10:53:16;;;;;;;1999.90;999.90;;;16.70;99.90;;;;;;5038944;28;20065;-70
2023/04/20 10:55:43;;;;;;;1999.90;999.90;;;16.70;99.90;;;;;;5039089;28;20029;-72
2023/04/20 10:58:22;;;;;;;1999.90;999.90;;;16.70;99.90;;;;;;5034187;28;20036;-70
2023/04/20 11:00:58;;;;;;;1999.90;999.90;;;16.60;99.90;;;;;;5033138;28;20021;-71
2023/04/20 11:03:27;;;;;;;1999.90;999.90;;;16.60;99.90;;;;;;5027420;28;20194;-71
2023/04/20 11:05:59;;;;;;;1999.90;999.90;;;16.50;99.90;;;;;;5031324;28;20036;-70
2023/04/20 11:08:47;;;;;;;1999.90;999.90;;;16.40;99.90;;;;;;5035976;28;20040;-71
2023/04/20 11:11:29;;;;;;;1999.90;999.90;;;16.40;99.90;;;;;;5038329;28;20033;-70
2023/04/20 11:14:06;;;;;;;1999.90;999.90;;;16.30;99.90;;;;;;5036285;28;20033;-69
2023/04/20 11:16:35;;;;;;;1999.90;999.90;;;16.30;99.90;;;;;;5035288;28;20516;-68
2023/04/20 11:19:03;;;;;;;1999.90;999.90;;;16.20;99.90;;;;;;5036971;28;20044;-68
2023/04/20 11:21:41;;;;;;;1999.90;999.90;;;16.20;99.90;;;;;;5036569;28;20095;-69
2023/04/20 11:24:40;;;;;;;1999.90;999.90;;;16.20;99.90;;;;;;5037437;28;20120;-69
2023/04/20 11:27:07;;;;;;;1999.90;999.90;;;16.20;99.90;;;;;;5027131;28;20037;-70
2023/04/20 11:29:39;;;;;;;1999.90;999.90;;;16.20;99.90;;;;;;5032338;28;20685;-70
2023/04/20 11:32:10;;;;;;;1999.90;999.90;;;16.30;99.90;;;;;;5040056;28;20394;-68
2023/04/20 11:34:39;;;;;;;1999.90;999.90;;;16.30;99.90;;;;;;5036676;28;20628;-71
2023/04/20 11:37:13;;;;;;;1999.90;999.90;;;16.30;99.90;;;;;;5045727;28;20111;-68
2023/04/20 11:39:41;;;;;;;1999.90;999.90;;;16.40;99.90;;;;;;5033272;28;20089;-69
2023/04/20 11:42:09;;;;;;;1999.90;999.90;;;16.40;99.90;;;;;;5043130;28;20080;-69
2023/04/20 11:44:39;;;;;;;1999.90;999.90;;;16.40;99.90;;;;;;5034172;28;20043;-70
2023/04/20 11:47:06;;;;;;;1999.90;999.90;;;16.40;99.90;;;;;;5042799;28;20070;-70
2023/04/20 11:49:34;;;;;;;1999.90;999.90;;;16.50;99.90;;;;;;5045391;28;20436;-69
2023/04/20 11:52:01;;;;;;;1999.90;999.90;;;16.50;99.90;;;;;;5053549;28;20041;-69
2023/04/20 11:54:31;;;;;;;1999.90;999.90;;;16.50;99.90;;;;;;5048189;28;20139;-71
2023/04/20 11:56:58;;;;;;;1999.90;999.90;;;16.40;99.90;;;;;;5046668;28;20090;-71
2023/04/20 11:59:26;;;;;;;1999.90;999.90;;;16.40;99.90;;;;;;5042419;28;20032;-70
2023/04/20 12:01:53;;;;;;;1999.90;999.90;;;16.40;99.90;;;;;;5043137;28;20044;-70
2023/04/20 12:04:21;;;;;;;1999.90;999.90;;;16.40;99.90;;;;;;5042903;28;20018;-70
2023/04/20 12:06:48;;;;;;;1999.90;999.90;;;16.40;99.90;;;;;;5052280;28;20029;-70